Time;durP1;ratioP1;P1;durP2;ratioP2;P2;SDS_P1;SDS_P2;PMS_P1;PMS_P2;Temp;Humidity;BMP_temperature;BMP_pressure;BME280_temperature;BME280_humidity;BME280_pressure;Samples;Min_cycle;Max_cycle;Signal;HPM_P1;HPM_P2
2022/07/18 00:02:16;;;;;;;7.20;0.80;;;13.90;68.40;;;;;;5094383;28;20403;-87
2022/07/18 00:04:43;;;;;;;2.95;0.60;;;13.90;71.40;;;;;;5094512;28;20373;-89
2022/07/18 00:07:11;;;;;;;2.10;0.60;;;14.10;68.70;;;;;;5093825;28;20396;-89
2022/07/18 00:09:40;;;;;;;3.00;0.50;;;14.10;66.40;;;;;;5093348;28;20373;-88
2022/07/18 00:12:09;;;;;;;0.60;0.30;;;14.10;66.30;;;;;;5094725;28;20421;-89
2022/07/18 00:14:37;;;;;;;1.27;0.50;;;13.90;65.70;;;;;;5095224;28;20395;-88
2022/07/18 00:17:05;;;;;;;0.80;0.30;;;13.60;65.60;;;;;;5094844;28;20380;-90
2022/07/18 00:19:33;;;;;;;1.50;0.50;;;13.50;66.10;;;;;;5093843;28;20404;-90
2022/07/18 00:22:00;;;;;;;2.13;0.77;;;13.40;64.80;;;;;;5094662;28;20404;-89
2022/07/18 00:24:28;;;;;;;3.50;1.02;;;13.60;65.40;;;;;;5074239;28;20886;-89
2022/07/18 00:26:55;;;;;;;1.67;0.50;;;13.80;65.40;;;;;;5074114;28;20548;-88
2022/07/18 00:29:22;;;;;;;2.40;0.70;;;13.80;64.00;;;;;;5055603;28;20370;-90
2022/07/18 00:31:49;;;;;;;3.03;0.95;;;13.90;64.80;;;;;;5073146;28;20914;-89
2022/07/18 00:34:17;;;;;;;3.42;1.25;;;13.80;64.40;;;;;;5072271;28;20388;-88
2022/07/18 00:36:44;;;;;;;2.77;0.80;;;13.70;63.80;;;;;;5072608;28;20483;-89
2022/07/18 00:39:11;;;;;;;3.05;0.57;;;13.70;63.70;;;;;;5055293;28;21016;-87
2022/07/18 00:41:39;;;;;;;2.40;0.60;;;13.70;63.20;;;;;;5072106;28;20406;-89
2022/07/18 00:44:06;;;;;;;0.75;0.40;;;13.70;63.50;;;;;;5054924;28;20374;-88
2022/07/18 00:46:33;;;;;;;2.00;0.43;;;13.80;63.50;;;;;;5071921;28;20378;-88
2022/07/18 00:49:00;;;;;;;0.80;0.40;;;13.80;62.50;;;;;;5071759;28;20392;-89
2022/07/18 00:51:27;;;;;;;1.40;0.45;;;13.80;61.60;;;;;;5071453;28;20980;-90
2022/07/18 00:53:54;;;;;;;0.75;0.43;;;13.80;61.20;;;;;;5054941;28;20374;-90
2022/07/18 00:56:23;;;;;;;0.95;0.50;;;13.80;61.70;;;;;;5055306;28;20377;-87
2022/07/18 00:58:50;;;;;;;1.77;0.40;;;13.90;62.10;;;;;;5071100;28;20378;-90
2022/07/18 01:04:02;;;;;;;0.65;0.30;;;13.90;60.20;;;;;;5094806;28;20459;-90
2022/07/18 01:06:29;;;;;;;1.23;0.43;;;13.90;61.80;;;;;;5092636;28;20381;-87
2022/07/18 01:08:58;;;;;;;1.87;0.50;;;14.00;61.00;;;;;;5093352;28;20368;-89
2022/07/18 01:11:25;;;;;;;1.77;0.43;;;14.00;60.30;;;;;;5077850;28;20411;-89
2022/07/18 01:13:54;;;;;;;1.15;0.40;;;14.10;60.60;;;;;;5096674;28;20379;-90
2022/07/18 01:16:22;;;;;;;0.95;0.47;;;14.10;61.10;;;;;;5079540;28;20377;-89
2022/07/18 01:18:50;;;;;;;0.53;0.30;;;14.30;60.50;;;;;;5093823;28;20887;-91
2022/07/18 01:21:18;;;;;;;0.82;0.40;;;14.20;59.20;;;;;;5092479;28;20389;-90
2022/07/18 01:23:45;;;;;;;0.50;0.30;;;14.20;59.70;;;;;;5092843;28;20387;-89
2022/07/18 01:26:14;;;;;;;2.75;0.57;;;14.20;60.50;;;;;;5092632;28;20397;-88
2022/07/18 01:28:42;;;;;;;0.50;0.40;;;15.30;60.20;;;;;;5091947;28;20546;-88
2022/07/18 01:31:10;;;;;;;1.00;0.30;;;14.40;59.50;;;;;;5092242;28;20848;-88
2022/07/18 01:33:39;;;;;;;0.90;0.30;;;14.40;58.30;;;;;;5091776;28;20426;-90
2022/07/18 01:36:07;;;;;;;2.03;0.30;;;14.20;59.00;;;;;;5092743;28;20781;-90
2022/07/18 01:38:34;;;;;;;0.50;0.30;;;14.30;59.80;;;;;;5075132;28;20400;-90
2022/07/18 01:41:02;;;;;;;1.05;0.40;;;14.20;59.50;;;;;;5075220;28;20911;-91
2022/07/18 01:43:33;;;;;;;1.90;0.32;;;14.20;60.20;;;;;;5075193;28;21004;-89
2022/07/18 01:46:02;;;;;;;1.17;0.22;;;14.50;60.70;;;;;;5079798;28;20456;-89
2022/07/18 01:48:29;;;;;;;1.00;0.40;;;14.60;59.70;;;;;;5094402;28;20685;-90
2022/07/18 01:50:57;;;;;;;0.93;0.40;;;14.70;58.80;;;;;;5093168;28;20451;-89
2022/07/18 01:53:24;;;;;;;1.40;0.40;;;14.60;57.90;;;;;;5093880;28;20381;-88
2022/07/18 01:55:52;;;;;;;0.75;0.40;;;14.50;59.60;;;;;;5093354;28;20364;-92
2022/07/18 01:58:19;;;;;;;0.80;0.30;;;14.80;59.50;;;;;;5093197;28;20800;-89
2022/07/18 02:00:46;;;;;;;0.80;0.30;;;15.00;58.90;;;;;;5092831;28;20426;-89
2022/07/18 02:03:13;;;;;;;1.55;0.40;;;15.00;58.10;;;;;;5093322;28;20380;-89
2022/07/18 02:05:41;;;;;;;1.63;0.45;;;14.60;61.20;;;;;;5092038;28;20376;-88
2022/07/18 02:08:08;;;;;;;2.45;0.50;;;14.30;62.90;;;;;;5089158;28;20860;-88
2022/07/18 02:10:35;;;;;;;0.90;0.33;;;14.10;63.80;;;;;;5091564;28;20468;-89
2022/07/18 02:13:02;;;;;;;3.42;0.40;;;14.00;64.70;;;;;;5094755;28;20394;-89
2022/07/18 02:15:29;;;;;;;0.95;0.30;;;13.70;66.10;;;;;;5095019;28;20376;-90
2022/07/18 02:17:57;;;;;;;0.98;0.50;;;13.70;67.00;;;;;;5095557;28;20387;-91
2022/07/18 02:20:24;;;;;;;1.25;0.60;;;13.90;68.30;;;;;;5091881;28;20404;-89
2022/07/18 02:22:51;;;;;;;1.30;0.27;;;14.30;65.30;;;;;;5092869;28;20404;-89
2022/07/18 02:25:18;;;;;;;1.20;0.60;;;14.40;62.80;;;;;;5096949;28;20368;-88
2022/07/18 02:27:46;;;;;;;0.65;0.30;;;14.40;63.10;;;;;;5096423;28;20400;-89
2022/07/18 02:30:13;;;;;;;1.90;0.30;;;14.20;62.80;;;;;;5096381;28;20911;-91
2022/07/18 02:32:40;;;;;;;0.60;0.30;;;14.20;63.00;;;;;;5099619;28;20384;-91
2022/07/18 02:35:09;;;;;;;0.20;0.20;;;14.30;62.80;;;;;;5095043;28;20374;-89
2022/07/18 02:37:51;;;;;;;0.53;0.20;;;14.30;62.30;;;;;;5096702;28;20396;-90
2022/07/18 02:40:19;;;;;;;0.87;0.30;;;14.30;62.90;;;;;;5097127;28;20372;-89
2022/07/18 02:42:46;;;;;;;0.30;0.20;;;14.30;64.10;;;;;;5097876;28;20384;-89
2022/07/18 02:45:13;;;;;;;2.40;0.50;;;14.40;64.00;;;;;;5095262;28;20455;-89
2022/07/18 02:47:41;;;;;;;2.92;0.70;;;14.40;66.50;;;;;;5096680;28;20388;-89
2022/07/18 02:50:09;;;;;;;1.60;0.77;;;14.50;64.10;;;;;;5095193;28;20501;-91
2022/07/18 02:52:37;;;;;;;1.83;0.50;;;14.40;65.60;;;;;;5096312;28;20394;-90
2022/07/18 02:55:04;;;;;;;0.93;0.40;;;14.40;65.00;;;;;;5094505;28;20461;-88
2022/07/18 02:57:32;;;;;;;1.00;0.30;;;14.60;64.40;;;;;;5096671;28;20526;-88
2022/07/18 02:59:59;;;;;;;0.30;0.20;;;14.60;63.30;;;;;;5099291;28;20402;-88
2022/07/18 03:02:27;;;;;;;0.40;0.25;;;14.50;63.20;;;;;;5107575;28;20400;-90
2022/07/18 03:04:54;;;;;;;0.30;0.30;;;14.50;63.30;;;;;;5106830;28;20368;-89
2022/07/18 03:07:21;;;;;;;0.82;0.25;;;14.40;63.40;;;;;;5104561;28;20372;-91
2022/07/18 03:09:48;;;;;;;0.80;0.30;;;14.50;63.50;;;;;;5098773;28;20372;-90
2022/07/18 03:12:16;;;;;;;1.50;0.40;;;14.50;63.00;;;;;;5094815;28;20371;-88
2022/07/18 03:14:43;;;;;;;1.10;0.40;;;14.30;64.00;;;;;;5096121;28;20381;-90
2022/07/18 03:17:10;;;;;;;0.13;0.10;;;14.40;64.10;;;;;;5097425;28;20384;-90
2022/07/18 03:19:38;;;;;;;0.90;0.20;;;14.40;63.40;;;;;;5095942;28;20712;-92
2022/07/18 03:22:06;;;;;;;0.97;0.30;;;14.30;62.80;;;;;;5096090;28;20500;-89
2022/07/18 03:24:33;;;;;;;0.60;0.30;;;14.20;63.80;;;;;;5093169;28;20799;-90
2022/07/18 03:27:00;;;;;;;0.80;0.38;;;14.20;63.80;;;;;;5095581;28;20415;-89
2022/07/18 03:29:27;;;;;;;1.58;0.40;;;14.20;63.00;;;;;;5098880;28;20403;-87
2022/07/18 03:31:54;;;;;;;0.70;0.47;;;14.30;62.40;;;;;;5094700;28;20411;-89
2022/07/18 03:34:24;;;;;;;0.55;0.40;;;14.30;61.50;;;;;;5095626;28;20800;-90
2022/07/18 03:36:53;;;;;;;1.00;0.40;;;14.20;61.30;;;;;;5095644;28;20472;-89
2022/07/18 03:39:25;;;;;;;0.38;0.22;;;14.20;60.90;;;;;;5055973;28;20372;-86
2022/07/18 03:41:53;;;;;;;1.50;0.43;;;14.40;59.50;;;;;;5054323;28;20396;-87
2022/07/18 03:44:20;;;;;;;1.13;0.40;;;14.40;58.80;;;;;;5038042;28;20372;-88
2022/07/18 03:46:47;;;;;;;1.50;0.40;;;14.30;59.70;;;;;;5037608;28;20411;-92
2022/07/18 03:49:14;;;;;;;0.50;0.40;;;14.30;60.00;;;;;;5053433;28;20380;-89
2022/07/18 03:51:41;;;;;;;1.40;0.45;;;14.50;60.40;;;;;;5037198;28;20384;-90
2022/07/18 03:54:09;;;;;;;1.00;0.50;;;14.60;59.30;;;;;;5038384;28;21060;-89
2022/07/18 03:56:37;;;;;;;0.80;0.40;;;14.60;58.60;;;;;;5053869;28;20376;-89
2022/07/18 03:59:04;;;;;;;0.73;0.38;;;14.40;58.90;;;;;;5053575;28;20756;-90
2022/07/18 04:01:32;;;;;;;1.20;0.30;;;14.50;57.10;;;;;;5036674;28;20883;-89
2022/07/18 04:03:59;;;;;;;2.47;0.52;;;14.40;57.70;;;;;;5053691;28;20998;-88
2022/07/18 04:06:26;;;;;;;1.90;0.50;;;14.50;58.40;;;;;;5054136;28;20481;-91
2022/07/18 04:08:53;;;;;;;3.05;0.55;;;14.60;58.60;;;;;;5036789;28;20864;-89
2022/07/18 04:11:23;;;;;;;1.00;0.50;;;14.70;59.20;;;;;;5052753;28;20510;-89
2022/07/18 04:13:54;;;;;;;0.40;0.40;;;14.70;58.80;;;;;;5036635;28;20575;-87
2022/07/18 04:16:21;;;;;;;1.13;0.40;;;14.60;58.20;;;;;;5070303;28;20392;-88
2022/07/18 04:18:49;;;;;;;1.02;0.40;;;14.60;58.00;;;;;;5096121;28;20463;-91
2022/07/18 04:21:17;;;;;;;0.93;0.35;;;14.50;59.40;;;;;;5097734;28;20404;-88
2022/07/18 04:23:44;;;;;;;0.70;0.40;;;14.60;60.00;;;;;;5099297;28;20722;-90
2022/07/18 04:26:11;;;;;;;0.65;0.40;;;14.40;59.60;;;;;;5099448;28;20393;-91
2022/07/18 04:28:38;;;;;;;0.63;0.40;;;14.20;59.40;;;;;;5095836;28;20380;-90
2022/07/18 04:31:06;;;;;;;1.13;0.40;;;14.20;61.10;;;;;;5094646;28;20963;-89
2022/07/18 04:33:33;;;;;;;0.77;0.30;;;14.20;59.80;;;;;;5093884;28;20387;-91
2022/07/18 04:36:00;;;;;;;0.75;0.40;;;14.20;59.80;;;;;;5094974;28;20788;-89
2022/07/18 04:38:30;;;;;;;0.40;0.35;;;14.30;58.20;;;;;;5093407;28;20400;-91
2022/07/18 04:40:57;;;;;;;2.30;0.50;;;14.30;58.60;;;;;;5093517;28;20391;-89
2022/07/18 04:43:24;;;;;;;0.95;0.40;;;14.40;58.10;;;;;;5092991;28;20385;-90
2022/07/18 04:45:51;;;;;;;0.50;0.30;;;14.60;56.40;;;;;;5093266;28;20369;-88
2022/07/18 04:48:19;;;;;;;0.80;0.50;;;14.90;56.50;;;;;;5093424;28;20520;-91
2022/07/18 04:50:46;;;;;;;0.73;0.50;;;15.20;55.70;;;;;;5093122;28;20385;-88
2022/07/18 04:53:13;;;;;;;0.90;0.40;;;15.40;55.10;;;;;;5093205;28;20368;-90
2022/07/18 04:55:40;;;;;;;0.90;0.43;;;15.50;54.90;;;;;;5092911;28;20907;-90
2022/07/18 04:58:07;;;;;;;0.68;0.50;;;15.60;56.30;;;;;;5093633;28;20408;-90
2022/07/18 05:00:38;;;;;;;0.40;0.40;;;15.40;55.20;;;;;;5093078;28;20468;-91
2022/07/18 05:03:05;;;;;;;1.92;0.43;;;16.10;55.10;;;;;;5092689;28;20467;-88
2022/07/18 05:05:32;;;;;;;1.63;0.50;;;16.90;54.60;;;;;;5092805;28;20372;-88
2022/07/18 05:07:59;;;;;;;1.52;0.47;;;17.20;54.30;;;;;;5094162;28;20384;-90
2022/07/18 05:10:26;;;;;;;2.22;0.50;;;16.20;55.50;;;;;;5094439;28;20386;-91
2022/07/18 05:12:55;;;;;;;0.88;0.32;;;15.30;55.20;;;;;;5093175;28;20384;-89
2022/07/18 05:15:24;;;;;;;0.32;0.32;;;14.70;56.60;;;;;;5093690;28;20448;-89
2022/07/18 05:17:52;;;;;;;1.30;0.50;;;14.40;56.70;;;;;;5094763;28;20376;-89
2022/07/18 05:20:21;;;;;;;1.10;0.50;;;14.20;56.40;;;;;;5092654;28;20372;-91
2022/07/18 05:22:48;;;;;;;1.08;0.40;;;14.00;57.90;;;;;;5093148;28;20411;-90
2022/07/18 05:25:16;;;;;;;0.50;0.50;;;14.00;58.00;;;;;;5094485;28;20789;-91
2022/07/18 05:27:43;;;;;;;2.10;0.63;;;13.90;57.60;;;;;;5093181;28;20378;-90
2022/07/18 05:30:12;;;;;;;1.40;0.57;;;13.90;57.30;;;;;;5092836;28;20383;-90
2022/07/18 05:32:41;;;;;;;1.25;0.52;;;13.80;57.80;;;;;;5093699;28;20364;-91
2022/07/18 05:35:10;;;;;;;0.60;0.50;;;13.70;57.70;;;;;;5092803;28;20383;-92
2022/07/18 05:37:37;;;;;;;1.15;0.50;;;13.70;57.70;;;;;;5092930;28;20385;-91
2022/07/18 05:40:06;;;;;;;1.38;0.43;;;13.70;58.10;;;;;;5092165;28;20779;-89
2022/07/18 05:42:33;;;;;;;2.67;0.57;;;13.70;59.20;;;;;;5092534;28;20435;-89
2022/07/18 05:45:01;;;;;;;1.50;0.52;;;13.70;58.50;;;;;;5094758;28;20732;-89
2022/07/18 05:47:28;;;;;;;1.10;0.50;;;13.60;57.10;;;;;;5097441;28;20400;-89
2022/07/18 05:49:55;;;;;;;0.80;0.40;;;13.50;57.40;;;;;;5093468;28;20375;-88
2022/07/18 05:52:22;;;;;;;1.48;0.65;;;13.40;57.20;;;;;;5095277;28;20453;-90
2022/07/18 05:54:49;;;;;;;1.88;0.70;;;13.40;57.60;;;;;;5094418;28;20534;-90
2022/07/18 05:57:17;;;;;;;2.78;0.75;;;13.50;57.50;;;;;;5095521;28;20376;-92
2022/07/18 05:59:44;;;;;;;1.43;0.60;;;13.40;57.60;;;;;;5097441;28;20380;-87
2022/07/18 06:02:11;;;;;;;1.25;0.52;;;13.40;57.40;;;;;;5095757;28;20415;-88
2022/07/18 06:04:38;;;;;;;2.17;0.70;;;13.40;57.50;;;;;;5098024;28;20380;-89
2022/07/18 06:07:05;;;;;;;1.63;0.70;;;13.30;58.50;;;;;;5096768;28;20384;-87
2022/07/18 06:09:32;;;;;;;1.42;0.68;;;13.30;59.00;;;;;;5097174;28;20426;-90
2022/07/18 06:12:01;;;;;;;1.30;0.80;;;13.20;59.60;;;;;;5097031;28;20391;-92
2022/07/18 06:14:29;;;;;;;1.17;0.68;;;13.20;59.60;;;;;;5098783;28;20379;-88
2022/07/18 06:16:56;;;;;;;1.42;0.60;;;13.10;59.50;;;;;;5098370;28;20376;-89
2022/07/18 06:19:24;;;;;;;3.15;1.00;;;13.10;60.60;;;;;;5097722;28;20364;-90
2022/07/18 06:21:52;;;;;;;1.23;0.70;;;13.00;60.50;;;;;;5096795;28;20922;-90
2022/07/18 06:24:19;;;;;;;3.63;1.20;;;13.00;61.10;;;;;;5096986;28;20832;-89
2022/07/18 06:26:46;;;;;;;2.13;0.90;;;13.00;61.10;;;;;;5094956;28;20483;-88
2022/07/18 06:29:13;;;;;;;1.83;0.80;;;12.80;61.30;;;;;;5098332;28;20373;-91
2022/07/18 06:31:40;;;;;;;2.42;0.90;;;12.70;61.90;;;;;;5097315;28;20377;-90
2022/07/18 06:34:07;;;;;;;2.38;0.75;;;12.80;62.00;;;;;;5097356;28;20751;-88
2022/07/18 06:36:35;;;;;;;2.28;0.80;;;12.70;63.40;;;;;;5096933;28;20451;-88
2022/07/18 06:39:08;;;;;;;2.97;0.87;;;12.60;63.80;;;;;;5097137;28;20353;-85
2022/07/18 06:41:35;;;;;;;2.20;0.73;;;12.50;63.80;;;;;;5095193;28;20407;-89
2022/07/18 06:44:02;;;;;;;1.80;0.60;;;12.40;63.40;;;;;;5096771;28;20361;-90
2022/07/18 06:46:29;;;;;;;2.15;0.70;;;12.40;63.10;;;;;;5094752;28;20380;-90
2022/07/18 06:48:56;;;;;;;2.05;0.60;;;12.30;63.00;;;;;;5096371;28;20369;-88
2022/07/18 06:51:25;;;;;;;4.10;1.40;;;12.30;63.30;;;;;;5096395;28;20923;-91
2022/07/18 06:53:52;;;;;;;2.00;0.90;;;12.20;64.00;;;;;;5096293;28;20373;-88
2022/07/18 06:56:19;;;;;;;2.80;1.25;;;12.10;64.80;;;;;;5096378;28;20386;-87
2022/07/18 06:58:49;;;;;;;1.95;0.90;;;11.90;64.40;;;;;;5096711;28;20377;-88
2022/07/18 07:01:18;;;;;;;2.17;0.90;;;11.90;64.30;;;;;;5095133;28;20392;-86
2022/07/18 07:03:46;;;;;;;1.90;0.95;;;11.70;64.90;;;;;;5095978;28;20372;-88
2022/07/18 07:06:15;;;;;;;2.25;0.90;;;11.70;66.10;;;;;;5095389;28;20436;-83
2022/07/18 07:08:44;;;;;;;2.80;0.80;;;11.40;66.50;;;;;;5095207;28;20380;-87
2022/07/18 07:11:11;;;;;;;2.60;1.00;;;11.30;67.20;;;;;;5095045;28;20489;-86
2022/07/18 07:13:38;;;;;;;1.37;0.90;;;11.20;67.60;;;;;;5095005;28;20743;-87
2022/07/18 07:16:05;;;;;;;3.35;1.25;;;11.10;68.20;;;;;;5095186;28;20412;-85
2022/07/18 07:18:33;;;;;;;2.95;1.13;;;10.90;69.00;;;;;;5094983;28;20871;-82
2022/07/18 07:21:01;;;;;;;1.70;1.10;;;10.80;69.40;;;;;;5095098;28;20473;-83
2022/07/18 07:23:29;;;;;;;2.00;1.20;;;10.70;69.80;;;;;;5095017;28;20837;-86
2022/07/18 07:25:56;;;;;;;2.17;1.27;;;10.70;70.10;;;;;;5094926;28;20364;-88
2022/07/18 07:28:23;;;;;;;3.22;1.20;;;10.60;70.70;;;;;;5095773;28;20368;-86
2022/07/18 07:30:50;;;;;;;3.08;1.33;;;10.50;71.20;;;;;;5096266;28;20368;-83
2022/07/18 07:33:17;;;;;;;2.88;1.30;;;10.30;72.10;;;;;;5100848;28;20373;-84
2022/07/18 07:35:45;;;;;;;2.63;1.10;;;10.30;73.00;;;;;;5100577;28;20377;-84
2022/07/18 07:38:17;;;;;;;3.33;1.20;;;10.20;73.20;;;;;;5100648;28;20384;-84
2022/07/18 07:40:47;;;;;;;3.53;1.35;;;10.20;73.60;;;;;;5095871;28;20392;-82
2022/07/18 07:43:16;;;;;;;2.63;1.25;;;10.20;74.10;;;;;;5095094;28;20380;-84
2022/07/18 07:45:46;;;;;;;1.85;1.20;;;10.10;74.30;;;;;;5095278;28;20364;-84
2022/07/18 07:48:13;;;;;;;2.97;1.50;;;10.10;74.80;;;;;;5094543;28;20455;-86
2022/07/18 07:50:40;;;;;;;3.50;1.50;;;10.10;74.70;;;;;;5094708;28;20736;-83
2022/07/18 07:53:07;;;;;;;3.35;1.85;;;10.00;75.00;;;;;;5094308;28;20460;-88
2022/07/18 07:55:35;;;;;;;3.33;1.60;;;10.00;75.40;;;;;;5094477;28;20364;-85
2022/07/18 07:58:04;;;;;;;4.18;1.70;;;9.90;75.60;;;;;;5094480;28;20384;-88
2022/07/18 08:00:32;;;;;;;3.83;1.80;;;9.90;76.30;;;;;;5094331;28;20369;-85
2022/07/18 08:03:05;;;;;;;3.45;1.70;;;9.80;76.90;;;;;;5094783;28;20385;-87
2022/07/18 08:05:37;;;;;;;3.70;1.60;;;9.70;77.20;;;;;;5095136;28;20396;-87
2022/07/18 08:08:05;;;;;;;3.58;1.73;;;9.70;77.40;;;;;;5094627;28;20377;-82
2022/07/18 08:10:33;;;;;;;4.30;1.73;;;9.60;77.60;;;;;;5095216;28;20382;-90
2022/07/18 08:13:00;;;;;;;4.35;1.80;;;9.60;78.30;;;;;;5094332;28;20404;-88
2022/07/18 08:15:27;;;;;;;3.75;1.77;;;9.40;79.20;;;;;;5094825;28;20900;-91
2022/07/18 08:17:55;;;;;;;3.53;1.70;;;9.30;80.30;;;;;;5094122;28;20368;-90
2022/07/18 08:20:23;;;;;;;5.00;2.03;;;9.20;80.80;;;;;;5093532;28;20479;-85
2022/07/18 08:23:09;;;;;;;2.97;1.85;;;9.10;82.20;;;;;;5094727;28;20393;-81
2022/07/18 08:25:39;;;;;;;3.78;2.17;;;9.00;83.60;;;;;;5095706;28;20420;-89
2022/07/18 08:28:07;;;;;;;5.45;2.33;;;8.90;85.40;;;;;;5093259;28;20918;-87
2022/07/18 08:30:35;;;;;;;4.18;2.05;;;8.90;86.00;;;;;;5096852;28;20413;-84
2022/07/18 08:33:03;;;;;;;3.65;2.10;;;8.70;88.10;;;;;;5104526;28;20379;-84
2022/07/18 08:35:34;;;;;;;4.88;2.33;;;8.70;89.60;;;;;;5101234;28;20372;-86
2022/07/18 08:38:02;;;;;;;3.38;1.92;;;8.70;90.10;;;;;;5098739;28;20388;-86
2022/07/18 08:40:30;;;;;;;2.80;2.00;;;8.70;90.00;;;;;;5101217;28;20411;-84
2022/07/18 08:42:58;;;;;;;3.15;2.05;;;8.70;90.40;;;;;;5101710;28;20439;-84
2022/07/18 08:45:26;;;;;;;3.78;2.10;;;8.70;90.70;;;;;;5093236;28;20878;-85
2022/07/18 08:47:54;;;;;;;2.90;1.85;;;8.70;90.90;;;;;;5091740;28;20387;-82
2022/07/18 08:50:21;;;;;;;3.10;1.70;;;8.60;91.00;;;;;;5093063;28;20457;-85
2022/07/18 08:52:49;;;;;;;3.50;1.80;;;8.70;91.00;;;;;;5093399;28;20377;-84
2022/07/18 08:55:17;;;;;;;2.67;1.67;;;8.70;91.20;;;;;;5093151;28;20446;-84
2022/07/18 08:57:44;;;;;;;3.75;1.67;;;8.60;91.20;;;;;;5093151;28;20887;-83
2022/07/18 09:00:12;;;;;;;2.17;1.50;;;8.60;91.30;;;;;;5092081;28;20392;-83
2022/07/18 09:02:39;;;;;;;3.20;1.95;;;8.60;91.20;;;;;;5093175;28;20401;-84
2022/07/18 09:05:19;;;;;;;3.22;1.40;;;8.50;91.70;;;;;;5093539;28;20372;-84
2022/07/18 09:07:46;;;;;;;3.60;1.73;;;8.50;92.00;;;;;;5093721;28;20380;-83
2022/07/18 09:10:13;;;;;;;3.60;1.50;;;8.50;92.10;;;;;;5092823;28;20365;-84
2022/07/18 09:12:56;;;;;;;2.47;1.38;;;8.40;92.50;;;;;;5092740;28;20720;-84
2022/07/18 09:15:24;;;;;;;2.22;1.80;;;8.30;93.10;;;;;;5092989;28;20369;-84
2022/07/18 09:17:51;;;;;;;3.03;1.90;;;8.20;93.20;;;;;;5094585;28;20385;-85
2022/07/18 09:20:18;;;;;;;4.72;2.10;;;8.20;93.70;;;;;;5096542;28;20375;-83
2022/07/18 09:22:48;;;;;;;4.20;2.10;;;8.10;94.00;;;;;;5097834;28;20400;-86
2022/07/18 09:25:19;;;;;;;2.25;1.65;;;8.00;94.50;;;;;;5095808;28;20868;-87
2022/07/18 09:27:48;;;;;;;3.60;2.00;;;7.90;95.20;;;;;;5095307;28;20383;-85
2022/07/18 09:30:20;;;;;;;4.10;2.10;;;7.80;96.00;;;;;;5092273;28;20887;-86
2022/07/18 09:33:02;;;;;;;4.13;2.72;;;7.70;96.40;;;;;;5095110;28;20434;-84
2022/07/18 09:35:33;;;;;;;4.50;3.13;;;7.70;96.90;;;;;;5097650;28;20810;-84
2022/07/18 09:38:05;;;;;;;30.67;21.92;;;7.70;97.20;;;;;;5096696;28;20380;-87
2022/07/18 09:40:47;;;;;;;53.15;35.70;;;9.50;98.10;;;;;;5097541;28;20721;-85
2022/07/18 09:43:16;;;;;;;57.20;34.30;;;7.60;97.90;;;;;;5097317;28;20482;-89
2022/07/18 09:45:48;;;;;;;44.00;27.20;;;7.50;98.30;;;;;;5097100;28;20860;-90
2022/07/18 09:48:24;;;;;;;22.37;12.40;;;7.50;98.70;;;;;;5096889;28;20383;-86
2022/07/18 09:50:59;;;;;;;7.37;3.97;;;7.50;99.00;;;;;;5094964;28;20721;-85
2022/07/18 09:53:40;;;;;;;8.00;4.25;;;7.30;99.00;;;;;;5096412;28;20372;-86
2022/07/18 09:56:13;;;;;;;6.53;2.70;;;7.40;99.20;;;;;;5096568;28;20367;-85
2022/07/18 09:58:50;;;;;;;3.53;2.20;;;7.40;99.20;;;;;;5097016;28;20705;-86
2022/07/18 10:01:18;;;;;;;3.03;1.98;;;7.40;99.20;;;;;;5096068;28;20479;-86
2022/07/18 10:03:46;;;;;;;3.53;2.00;;;7.40;99.20;;;;;;5096468;28;20376;-86
2022/07/18 10:06:13;;;;;;;2.38;1.70;;;7.40;99.10;;;;;;5095318;28;20386;-86
2022/07/18 10:08:40;;;;;;;2.60;1.90;;;7.40;99.40;;;;;;5096512;28;20372;-86
2022/07/18 10:11:08;;;;;;;3.58;1.83;;;7.40;99.30;;;;;;5096293;28;20380;-86
2022/07/18 10:13:37;;;;;;;2.83;2.00;;;7.40;99.00;;;;;;5096212;28;20469;-88
2022/07/18 10:16:05;;;;;;;3.28;2.10;;;7.40;98.70;;;;;;5097284;28;20502;-87
2022/07/18 10:18:38;;;;;;;2.72;1.80;;;7.40;99.00;;;;;;5097320;28;20404;-88
2022/07/18 10:21:19;;;;;;;2.67;2.03;;;7.30;99.20;;;;;;5097479;28;20782;-86
2022/07/18 10:23:47;;;;;;;2.80;1.60;;;7.20;99.70;;;;;;5096569;28;20725;-86
2022/07/18 10:26:16;;;;;;;4.68;1.55;;;7.20;99.90;;;;;;5096742;28;20380;-87
2022/07/18 10:29:02;;;;;;;2.85;1.50;;;7.20;99.90;;;;;;5097278;28;20364;-86
2022/07/18 10:31:33;;;;;;;3.17;1.48;;;7.20;99.90;;;;;;5097631;28;20368;-86
2022/07/18 10:34:06;;;;;;;2.72;1.60;;;7.20;99.90;;;;;;5096124;28;20418;-88
2022/07/18 10:36:37;;;;;;;2.22;1.48;;;7.10;99.90;;;;;;5096510;28;20852;-86
2022/07/18 10:39:14;;;;;;;2.20;1.70;;;7.00;99.90;;;;;;5097225;28;20388;-87
2022/07/18 10:41:44;;;;;;;2.75;1.58;;;6.90;99.90;;;;;;5097807;28;20534;-87
2022/07/18 10:44:26;;;;;;;2.73;1.70;;;6.90;99.90;;;;;;5100032;28;20751;-87
2022/07/18 10:47:28;;;;;;;2.88;1.50;;;6.80;99.90;;;;;;5099627;28;20706;-87
2022/07/18 10:49:58;;;;;;;4.03;1.90;;;6.70;99.90;;;;;;5097508;28;20403;-87
2022/07/18 10:52:32;;;;;;;4.90;2.10;;;6.60;99.90;;;;;;5096608;28;20368;-88
2022/07/18 10:55:18;;;;;;;2.58;2.05;;;6.50;99.90;;;;;;5097217;28;20364;-90
2022/07/18 10:57:52;;;;;;;4.07;2.33;;;6.40;99.90;;;;;;5096245;28;20735;-87
2022/07/18 11:00:42;;;;;;;5.03;2.30;;;6.30;99.90;;;;;;5096636;28;20376;-87
2022/07/18 11:03:11;;;;;;;4.30;2.95;;;6.20;99.90;;;;;;5096861;28;20385;-86
2022/07/18 11:05:41;;;;;;;3.80;2.20;;;6.30;99.90;;;;;;5096265;28;20381;-88
2022/07/18 11:08:14;;;;;;;3.33;2.10;;;6.30;99.90;;;;;;5095728;28;20452;-86
2022/07/18 11:10:49;;;;;;;4.18;1.80;;;6.20;99.90;;;;;;5094870;28;20463;-86
2022/07/18 11:13:48;;;;;;;4.38;1.90;;;6.30;99.90;;;;;;5096110;28;20376;-87
2022/07/18 11:16:25;;;;;;;5.35;2.20;;;6.30;99.90;;;;;;5096190;28;20729;-86
2022/07/18 11:19:12;;;;;;;4.70;2.30;;;6.40;99.90;;;;;;5094736;28;20380;-86
2022/07/18 11:21:39;;;;;;;5.10;2.40;;;6.40;99.90;;;;;;5096184;28;20384;-87
2022/07/18 11:24:12;;;;;;;5.88;2.35;;;6.50;99.90;;;;;;5094850;28;20391;-87
2022/07/18 11:26:46;;;;;;;5.80;2.75;;;6.50;99.90;;;;;;5095811;28;20752;-87
2022/07/18 11:29:20;;;;;;;5.30;2.57;;;6.50;99.90;;;;;;5096122;28;20404;-87
2022/07/18 11:31:53;;;;;;;7.55;2.63;;;6.40;99.90;;;;;;5094395;28;20386;-87
2022/07/18 11:34:21;;;;;;;4.32;2.35;;;6.20;99.90;;;;;;5095456;28;20369;-86
2022/07/18 11:36:49;;;;;;;5.40;2.53;;;6.10;99.90;;;;;;5095482;28;20387;-86
2022/07/18 11:39:31;;;;;;;5.40;2.42;;;6.00;99.90;;;;;;5095363;28;20896;-85
2022/07/18 11:42:01;;;;;;;6.32;3.05;;;6.00;99.90;;;;;;5095827;28;20930;-85
2022/07/18 11:44:28;;;;;;;5.40;2.97;;;5.90;99.90;;;;;;5095677;28;20376;-87
2022/07/18 11:47:13;;;;;;;6.15;3.10;;;5.80;99.90;;;;;;5094470;28;20373;-87
2022/07/18 11:49:40;;;;;;;9.65;3.92;;;5.80;99.90;;;;;;5094476;28;20372;-87
2022/07/18 11:52:08;;;;;;;4.63;3.10;;;5.80;99.90;;;;;;5095733;28;20425;-86
2022/07/18 11:54:35;;;;;;;7.43;3.83;;;5.80;99.90;;;;;;5093817;28;20778;-87
2022/07/18 11:57:03;;;;;;;5.03;2.20;;;5.80;99.90;;;;;;5095377;28;20380;-87
2022/07/18 11:59:41;;;;;;;3.33;2.22;;;5.90;99.90;;;;;;5096018;28;20857;-86
2022/07/18 12:02:10;;;;;;;4.93;2.20;;;5.90;99.90;;;;;;5094723;28;20396;-86
2022/07/18 12:04:38;;;;;;;4.97;2.40;;;6.00;99.90;;;;;;5094891;28;20708;-85
2022/07/18 12:07:20;;;;;;;4.33;2.70;;;6.00;99.90;;;;;;5094955;28;20377;-86
2022/07/18 12:09:49;;;;;;;4.43;3.10;;;6.10;99.90;;;;;;5093914;28;20369;-88
2022/07/18 12:12:18;;;;;;;5.15;3.25;;;6.10;99.90;;;;;;5095038;28;20376;-85
2022/07/18 12:14:54;;;;;;;7.60;3.93;;;6.10;99.90;;;;;;5095441;28;20404;-89
2022/07/18 12:17:21;;;;;;;6.82;3.17;;;6.10;99.90;;;;;;5095570;28;20402;-89
2022/07/18 12:19:48;;;;;;;8.73;3.20;;;6.10;99.90;;;;;;5095376;28;20383;-86
2022/07/18 12:22:16;;;;;;;5.95;2.40;;;6.10;99.90;;;;;;5096187;28;20403;-86
2022/07/18 12:25:00;;;;;;;4.53;2.00;;;6.00;99.90;;;;;;5095845;28;20447;-85
2022/07/18 12:27:33;;;;;;;5.85;2.28;;;6.10;99.90;;;;;;5095969;28;20404;-87
2022/07/18 12:30:11;;;;;;;5.13;1.90;;;6.10;99.90;;;;;;5095263;28;20443;-87
2022/07/18 12:32:51;;;;;;;6.45;1.73;;;6.10;99.90;;;;;;5095986;28;20863;-87
2022/07/18 12:35:38;;;;;;;3.75;1.70;;;6.10;99.90;;;;;;5095866;28;20754;-89
2022/07/18 12:38:16;;;;;;;5.93;1.83;;;6.20;99.90;;;;;;5094618;28;20404;-87
2022/07/18 12:40:52;;;;;;;5.10;1.67;;;6.20;99.90;;;;;;5094800;28;20978;-87
2022/07/18 12:43:28;;;;;;;5.30;2.05;;;6.20;99.90;;;;;;5093092;28;20392;-87
2022/07/18 12:45:57;;;;;;;3.85;1.60;;;6.20;99.90;;;;;;5094691;28;20368;-87
2022/07/18 12:48:29;;;;;;;3.90;1.83;;;6.20;99.90;;;;;;5093552;28;20396;-87
2022/07/18 12:51:01;;;;;;;5.63;1.73;;;6.30;99.90;;;;;;5094888;28;20376;-89
2022/07/18 12:53:31;;;;;;;4.13;1.70;;;6.40;99.90;;;;;;5091057;28;20380;-88
2022/07/18 12:55:58;;;;;;;5.28;1.80;;;6.50;99.90;;;;;;5094084;28;20368;-88
2022/07/18 12:58:25;;;;;;;3.60;1.63;;;6.50;99.90;;;;;;5093649;28;20399;-87
2022/07/18 13:00:55;;;;;;;4.32;1.70;;;6.70;99.90;;;;;;5094370;28;20379;-86
2022/07/18 13:03:22;;;;;;;3.47;1.50;;;6.70;99.90;;;;;;5092304;28;20821;-85
2022/07/18 13:05:49;;;;;;;3.28;1.50;;;6.90;99.90;;;;;;5093567;28;20410;-87